createdAt,value
2017-11-15T00:01:31.855Z,101.43
2017-11-15T00:03:58.051Z,119.87
2017-11-15T00:06:24.209Z,110.53
2017-11-15T00:08:51.142Z,114.20
2017-11-15T00:11:18.049Z,108.33
2017-11-15T00:13:44.222Z,105.67
2017-11-15T00:16:11.168Z,107.57
2017-11-15T00:18:38.123Z,95.73
2017-11-15T00:21:05.068Z,124.60
2017-11-15T00:23:31.265Z,107.60
2017-11-15T00:25:57.440Z,121.10
2017-11-15T00:28:24.373Z,93.77
2017-11-15T00:30:50.569Z,108.77
2017-11-15T00:33:16.770Z,113.27
2017-11-15T00:35:43.689Z,116.37
2017-11-15T00:38:09.910Z,114.77
2017-11-15T00:40:36.172Z,98.83
2017-11-15T00:43:02.349Z,102.70
2017-11-15T00:45:28.555Z,109.90
2017-11-15T00:47:55.469Z,102.67
2017-11-15T00:50:21.627Z,105.17
2017-11-15T00:52:47.834Z,86.57
2017-11-15T00:55:14.023Z,101.93
2017-11-15T00:57:40.215Z,90.87
2017-11-15T01:00:06.408Z,149.53
2017-11-15T01:02:32.557Z,90.37
2017-11-15T01:04:58.762Z,101.63
2017-11-15T01:07:24.974Z,116.27
2017-11-15T01:09:51.892Z,83.13
2017-11-15T01:12:18.053Z,90.77
2017-11-15T01:14:44.266Z,90.93
2017-11-15T01:17:10.427Z,92.17
2017-11-15T01:19:37.325Z,90.33
2017-11-15T01:22:03.558Z,98.77
2017-11-15T01:24:29.734Z,109.90
2017-11-15T01:26:55.914Z,91.57
2017-11-15T01:29:22.105Z,86.60
2017-11-15T01:31:49.009Z,101.13
2017-11-15T01:34:15.191Z,102.67
2017-11-15T01:36:41.399Z,109.90
2017-11-15T01:39:07.588Z,116.97
2017-11-15T01:41:33.846Z,124.87
2017-11-15T01:44:00.075Z,124.10
2017-11-15T01:46:26.277Z,116.50
2017-11-15T01:48:52.487Z,121.90
2017-11-15T01:51:19.477Z,113.60
2017-11-15T01:53:45.668Z,107.23
2017-11-15T01:56:12.597Z,118.97
2017-11-15T01:58:38.834Z,106.93
2017-11-15T02:01:14.024Z,115.47
2017-11-15T02:03:40.252Z,106.00
2017-11-15T02:06:07.167Z,124.40
2017-11-15T02:08:34.103Z,107.83
2017-11-15T02:11:00.314Z,123.00
2017-11-15T02:13:26.502Z,117.13
2017-11-15T02:15:53.426Z,123.30
2017-11-15T02:18:19.642Z,132.20
2017-11-15T02:20:45.836Z,128.93
2017-11-15T02:23:12.745Z,104.23
2017-11-15T02:25:39.018Z,126.87
2017-11-15T02:28:05.934Z,128.80
2017-11-15T02:30:32.861Z,113.90
2017-11-15T02:32:59.070Z,114.23
2017-11-15T02:35:25.231Z,114.03
2017-11-15T02:37:51.416Z,117.83
2017-11-15T02:40:18.350Z,124.40
2017-11-15T02:42:44.591Z,117.10
2017-11-15T02:45:11.490Z,113.83
2017-11-15T02:47:37.683Z,112.77
2017-11-15T02:50:04.592Z,108.67
2017-11-15T02:52:30.779Z,108.13
2017-11-15T02:54:56.986Z,106.90
2017-11-15T02:57:23.161Z,98.30
2017-11-15T02:59:49.367Z,98.60
2017-11-15T03:02:16.290Z,107.57
2017-11-15T03:04:42.488Z,99.60
2017-11-15T03:07:08.661Z,87.53
2017-11-15T03:09:34.849Z,91.97
2017-11-15T03:12:01.002Z,101.57
2017-11-15T03:14:27.149Z,102.87
2017-11-15T03:16:53.317Z,96.60
2017-11-15T03:19:19.466Z,86.83
2017-11-15T03:21:46.376Z,84.97
2017-11-15T03:24:12.603Z,99.13
2017-11-15T03:26:38.702Z,95.07
2017-11-15T03:29:04.883Z,103.10
2017-11-15T03:31:31.841Z,91.47
2017-11-15T03:33:58.006Z,87.77
2017-11-15T03:36:24.162Z,100.57
2017-11-15T03:38:50.394Z,83.07
2017-11-15T03:41:16.593Z,94.70
2017-11-15T03:43:44.464Z,88.33
2017-11-15T03:46:10.649Z,92.90
2017-11-15T03:48:36.795Z,87.70
2017-11-15T03:51:02.975Z,94.40
2017-11-15T03:53:29.150Z,87.60
2017-11-15T03:55:55.309Z,87.37
2017-11-15T03:58:22.207Z,85.17
2017-11-15T04:00:48.377Z,83.97
2017-11-15T04:03:14.542Z,92.30
2017-11-15T04:05:40.718Z,88.90
2017-11-15T04:08:06.926Z,81.40
2017-11-15T04:10:33.091Z,85.33
2017-11-15T04:12:59.265Z,77.10
2017-11-15T04:15:26.193Z,70.63
2017-11-15T04:17:52.367Z,69.23
2017-11-15T04:20:19.275Z,69.90
2017-11-15T04:22:45.491Z,67.77
2017-11-15T04:25:11.656Z,54.90
2017-11-15T04:27:37.813Z,63.63
2017-11-15T04:30:04.755Z,58.53
2017-11-15T04:32:30.914Z,65.43
2017-11-15T04:34:57.094Z,62.23
2017-11-15T04:37:23.269Z,66.10
2017-11-15T04:39:50.166Z,67.50
2017-11-15T04:42:16.354Z,76.07
2017-11-15T04:44:43.529Z,77.40
2017-11-15T04:47:09.721Z,74.23
2017-11-15T04:49:35.890Z,91.40
2017-11-15T04:52:02.094Z,79.07
2017-11-15T04:54:29.024Z,80.20
2017-11-15T04:56:55.181Z,82.93
2017-11-15T04:59:22.120Z,77.17
2017-11-15T05:01:49.041Z,75.90
2017-11-15T05:04:15.208Z,78.10
2017-11-15T05:06:42.154Z,77.73
2017-11-15T05:09:08.309Z,77.50
2017-11-15T05:11:34.472Z,75.90
2017-11-15T05:14:01.541Z,73.67
2017-11-15T05:16:27.725Z,78.40
2017-11-15T05:18:53.909Z,71.67
2017-11-15T05:21:20.094Z,69.87
2017-11-15T05:23:46.284Z,67.67
2017-11-15T05:26:12.432Z,66.90
2017-11-15T05:28:38.616Z,63.37
2017-11-15T05:31:04.798Z,57.50
2017-11-15T05:33:30.963Z,50.73
2017-11-15T05:35:58.051Z,53.27
2017-11-15T05:38:24.214Z,50.80
2017-11-15T05:40:50.377Z,41.00
2017-11-15T05:43:16.594Z,46.00
2017-11-15T05:45:43.081Z,43.23
2017-11-15T05:48:09.262Z,47.27
2017-11-15T05:50:36.206Z,38.87
2017-11-15T05:53:03.129Z,45.33
2017-11-15T05:55:29.302Z,42.03
2017-11-15T05:57:55.501Z,49.53
2017-11-15T06:00:21.646Z,57.27
2017-11-15T06:02:47.810Z,50.93
2017-11-15T06:05:14.029Z,54.40
2017-11-15T06:07:40.197Z,55.03
2017-11-15T06:10:06.382Z,66.40
2017-11-15T06:12:32.544Z,59.73
2017-11-15T06:14:58.750Z,58.03
2017-11-15T06:17:24.900Z,67.70
2017-11-15T06:19:51.150Z,67.77
2017-11-15T06:22:18.171Z,56.47
2017-11-15T06:24:44.294Z,68.67
2017-11-15T06:27:11.209Z,62.47
2017-11-15T06:29:38.112Z,67.03
2017-11-15T06:32:04.383Z,66.03
2017-11-15T06:34:30.596Z,73.23
2017-11-15T06:36:57.551Z,83.80
2017-11-15T06:39:24.346Z,81.67
2017-11-15T06:41:50.539Z,76.80
2017-11-15T06:44:16.722Z,73.87
2017-11-15T06:46:43.213Z,78.40
2017-11-15T06:49:10.128Z,83.03
2017-11-15T06:51:36.291Z,78.40
2017-11-15T06:54:03.197Z,84.30
2017-11-15T06:56:29.374Z,89.77
2017-11-15T06:58:56.310Z,94.33
2017-11-15T07:01:22.487Z,78.33
2017-11-15T07:03:48.680Z,78.40
2017-11-15T07:06:14.847Z,90.33
2017-11-15T07:08:41.018Z,73.80
2017-11-15T07:11:07.209Z,74.97
2017-11-15T07:13:33.432Z,82.17
2017-11-15T07:16:00.345Z,73.17
2017-11-15T07:18:26.502Z,77.60
2017-11-15T07:20:53.405Z,73.47
2017-11-15T07:23:19.578Z,68.33
2017-11-15T07:25:46.502Z,77.67
2017-11-15T07:28:12.665Z,59.10
2017-11-15T07:30:38.822Z,62.03
2017-11-15T07:33:05.030Z,72.27
2017-11-15T07:35:31.956Z,62.93
2017-11-15T07:37:58.109Z,72.60
2017-11-15T07:40:24.285Z,71.07
2017-11-15T07:42:50.456Z,72.53
2017-11-15T07:45:16.641Z,70.87
2017-11-15T07:47:43.074Z,62.27
2017-11-15T07:50:09.987Z,66.97
2017-11-15T07:52:36.154Z,68.83
2017-11-15T07:55:03.142Z,65.80
2017-11-15T07:57:29.378Z,70.13
2017-11-15T07:59:55.594Z,65.60
2017-11-15T08:02:21.781Z,69.27
2017-11-15T08:04:47.966Z,82.30
2017-11-15T08:07:14.135Z,66.80
2017-11-15T08:09:40.333Z,75.70
2017-11-15T08:12:06.525Z,68.10
2017-11-15T08:14:35.405Z,84.70
2017-11-15T08:17:01.593Z,78.50
2017-11-15T08:19:28.086Z,81.83
2017-11-15T08:21:54.518Z,84.60
2017-11-15T08:24:20.732Z,78.23
2017-11-15T08:26:46.882Z,91.77
2017-11-15T08:29:13.082Z,92.17
2017-11-15T08:31:39.292Z,93.50
2017-11-15T08:34:05.478Z,83.27
2017-11-15T08:36:31.654Z,82.17
2017-11-15T08:38:57.849Z,100.60
2017-11-15T08:41:23.998Z,100.40
2017-11-15T08:43:50.172Z,86.43
2017-11-15T08:46:16.393Z,90.07
2017-11-15T08:48:43.362Z,98.30
2017-11-15T08:51:09.528Z,90.73
2017-11-15T08:53:35.704Z,81.10
2017-11-15T08:56:01.885Z,78.00
2017-11-15T08:58:28.079Z,78.63
2017-11-15T09:00:54.272Z,95.73
2017-11-15T09:03:20.530Z,86.70
2017-11-15T09:05:47.446Z,68.80
2017-11-15T09:08:14.408Z,79.67
2017-11-15T09:10:40.596Z,88.63
2017-11-15T09:13:06.776Z,77.90
2017-11-15T09:15:32.943Z,74.90
2017-11-15T09:17:59.120Z,67.67
2017-11-15T09:20:25.326Z,71.40
2017-11-15T09:22:51.517Z,61.30
2017-11-15T09:25:17.704Z,55.40
2017-11-15T09:27:43.880Z,65.87
2017-11-15T09:30:10.825Z,59.03
2017-11-15T09:32:37.011Z,59.37
2017-11-15T09:35:03.173Z,56.33
2017-11-15T09:37:29.371Z,61.30
2017-11-15T09:39:55.530Z,51.70
2017-11-15T09:42:21.706Z,52.43
2017-11-15T09:44:47.913Z,54.97
2017-11-15T09:47:14.086Z,48.87
2017-11-15T09:49:40.429Z,58.37
2017-11-15T09:52:07.354Z,61.97
2017-11-15T09:54:34.266Z,55.00
2017-11-15T09:57:00.442Z,55.57
2017-11-15T09:59:26.626Z,56.33
2017-11-15T10:01:52.786Z,51.40
2017-11-15T10:04:18.949Z,50.73
2017-11-15T10:06:45.870Z,62.17
2017-11-15T10:09:12.038Z,54.40
2017-11-15T10:11:38.926Z,58.47
2017-11-15T10:14:05.105Z,64.03
2017-11-15T10:16:32.022Z,61.63
2017-11-15T10:18:58.185Z,64.70
2017-11-15T10:21:24.353Z,82.60
2017-11-15T10:23:50.519Z,63.77
2017-11-15T10:26:16.698Z,77.63
2017-11-15T10:28:43.662Z,73.17
2017-11-15T10:31:09.854Z,79.10
2017-11-15T10:33:36.030Z,80.37
2017-11-15T10:36:02.963Z,83.87
2017-11-15T10:38:29.874Z,85.00
2017-11-15T10:40:56.050Z,90.13
2017-11-15T10:43:22.984Z,103.33
2017-11-15T10:45:49.906Z,100.60
2017-11-15T10:48:16.117Z,106.07
2017-11-15T10:50:42.552Z,108.60
2017-11-15T10:53:08.714Z,116.07
2017-11-15T10:55:34.906Z,110.27
2017-11-15T10:58:01.081Z,116.93
2017-11-15T11:00:34.154Z,113.63
2017-11-15T11:03:00.322Z,124.90
2017-11-15T11:05:27.985Z,124.00
2017-11-15T11:07:54.154Z,156.43
2017-11-15T11:10:21.114Z,130.40
2017-11-15T11:12:47.297Z,127.47
2017-11-15T11:15:13.475Z,128.40
2017-11-15T11:17:39.667Z,143.13
2017-11-15T11:20:05.883Z,124.33
2017-11-15T11:22:32.040Z,133.80
2017-11-15T11:24:59.013Z,136.20
2017-11-15T11:27:25.950Z,125.30
2017-11-15T11:29:52.865Z,116.43
2017-11-15T11:32:19.023Z,124.50
2017-11-15T11:34:45.205Z,122.40
2017-11-15T11:37:11.381Z,125.57
2017-11-15T11:39:38.328Z,124.70
2017-11-15T11:42:04.487Z,116.10
2017-11-15T11:44:30.640Z,121.67
2017-11-15T11:46:57.535Z,118.70
2017-11-15T11:49:23.718Z,111.47
2017-11-15T11:51:50.744Z,101.53
2017-11-15T11:54:16.912Z,109.97
2017-11-15T11:56:43.874Z,113.33
2017-11-15T11:59:10.079Z,105.97
2017-11-15T12:01:37.011Z,106.03
2017-11-15T12:04:03.209Z,105.27
2017-11-15T12:06:29.361Z,103.57
2017-11-15T12:08:55.548Z,95.13
2017-11-15T12:11:22.450Z,101.90
2017-11-15T12:13:48.655Z,112.43
2017-11-15T12:16:14.822Z,100.30
2017-11-15T12:18:40.993Z,103.63
2017-11-15T12:21:07.899Z,96.10
2017-11-15T12:23:34.038Z,93.93
2017-11-15T12:26:00.249Z,97.03
2017-11-15T12:28:26.410Z,83.80
2017-11-15T12:30:52.593Z,129.67
2017-11-15T12:33:18.800Z,98.10
2017-11-15T12:35:45.697Z,70.60
2017-11-15T12:38:11.887Z,80.70
2017-11-15T12:40:38.797Z,75.83
2017-11-15T12:43:04.951Z,65.10
2017-11-15T12:45:31.102Z,64.80
2017-11-15T12:47:57.458Z,73.73
2017-11-15T12:50:23.876Z,71.93
2017-11-15T12:52:51.127Z,88.70
2017-11-15T12:55:18.050Z,68.73
2017-11-15T12:57:44.262Z,58.57
2017-11-15T13:00:10.433Z,55.47
2017-11-15T13:02:36.637Z,50.37
2017-11-15T13:05:02.804Z,54.57
2017-11-15T13:07:29.735Z,53.83
2017-11-15T13:09:55.934Z,63.37
2017-11-15T13:12:22.110Z,56.73
2017-11-15T13:14:48.261Z,57.43
2017-11-15T13:17:15.174Z,55.83
2017-11-15T13:19:41.362Z,47.83
2017-11-15T13:22:08.256Z,60.43
2017-11-15T13:24:34.449Z,53.40
2017-11-15T13:27:01.342Z,55.23
2017-11-15T13:29:27.531Z,52.70
2017-11-15T13:31:54.433Z,46.27
2017-11-15T13:34:20.614Z,46.23
2017-11-15T13:36:46.817Z,55.97
2017-11-15T13:39:13.028Z,46.23
2017-11-15T13:41:39.198Z,47.00
2017-11-15T13:44:06.094Z,46.23
2017-11-15T13:46:32.266Z,46.60
2017-11-15T13:48:58.413Z,44.80
2017-11-15T13:51:25.355Z,54.63
2017-11-15T13:53:51.589Z,43.10
2017-11-15T13:56:17.745Z,51.40
2017-11-15T13:58:44.667Z,46.73
2017-11-15T14:01:10.845Z,40.83
2017-11-15T14:03:37.035Z,40.03
2017-11-15T14:06:03.195Z,46.60
2017-11-15T14:08:29.390Z,45.63
2017-11-15T14:10:55.603Z,51.67
2017-11-15T14:13:21.779Z,50.33
2017-11-15T14:15:48.702Z,51.20
2017-11-15T14:18:14.886Z,47.20
2017-11-15T14:20:41.798Z,48.60
2017-11-15T14:23:07.993Z,45.30
2017-11-15T14:25:34.147Z,51.90
2017-11-15T14:28:00.326Z,42.00
2017-11-15T14:30:27.230Z,45.27
2017-11-15T14:32:53.394Z,48.67
2017-11-15T14:35:20.285Z,45.60
2017-11-15T14:37:46.481Z,52.50
2017-11-15T14:40:13.399Z,47.67
2017-11-15T14:42:39.549Z,43.97
2017-11-15T14:45:05.727Z,48.03
2017-11-15T14:47:31.892Z,47.93
2017-11-15T14:49:58.054Z,47.03
2017-11-15T14:52:25.733Z,57.53
2017-11-15T14:54:51.974Z,53.27
2017-11-15T14:57:18.879Z,58.30
2017-11-15T14:59:45.076Z,55.77
2017-11-15T15:02:11.998Z,51.60
2017-11-15T15:04:38.157Z,53.63
2017-11-15T15:07:04.350Z,51.77
2017-11-15T15:09:30.530Z,55.67
2017-11-15T15:11:56.689Z,49.50
2017-11-15T15:14:22.856Z,50.80
2017-11-15T15:16:49.016Z,55.77
2017-11-15T15:19:15.926Z,54.30
2017-11-15T15:21:42.118Z,46.67
2017-11-15T15:24:08.279Z,55.47
2017-11-15T15:26:34.422Z,50.40
2017-11-15T15:29:00.640Z,52.17
2017-11-15T15:31:26.833Z,45.80
2017-11-15T15:33:53.743Z,54.83
2017-11-15T15:36:19.955Z,40.60
2017-11-15T15:38:46.125Z,50.00
2017-11-15T15:41:13.056Z,52.90
2017-11-15T15:43:39.263Z,45.47
2017-11-15T15:46:05.446Z,58.37
2017-11-15T15:48:32.388Z,46.47
2017-11-15T15:50:58.570Z,54.97
2017-11-15T15:53:24.746Z,53.53
2017-11-15T15:55:51.190Z,49.00
2017-11-15T15:58:17.369Z,45.57
2017-11-15T16:00:43.545Z,51.90
2017-11-15T16:03:09.739Z,46.23
2017-11-15T16:05:35.980Z,53.97
2017-11-15T16:08:02.192Z,46.97
2017-11-15T16:10:29.105Z,44.30
2017-11-15T16:12:55.283Z,44.40
2017-11-15T16:15:22.203Z,36.30
2017-11-15T16:17:49.169Z,38.87
2017-11-15T16:20:16.117Z,38.03
2017-11-15T16:22:43.021Z,30.83
2017-11-15T16:25:09.188Z,52.97
2017-11-15T16:27:35.388Z,42.13
2017-11-15T16:30:02.490Z,32.83
2017-11-15T16:32:29.423Z,34.60
2017-11-15T16:34:55.589Z,43.20
2017-11-15T16:37:22.501Z,23.70
2017-11-15T16:39:48.694Z,39.53
2017-11-15T16:42:14.886Z,32.80
2017-11-15T16:44:41.050Z,40.23
2017-11-15T16:47:07.240Z,41.53
2017-11-15T16:49:34.192Z,38.77
2017-11-15T16:52:00.352Z,33.80
2017-11-15T16:54:27.345Z,45.63
2017-11-15T16:56:53.679Z,48.77
2017-11-15T16:59:19.899Z,37.33
2017-11-15T17:01:46.125Z,41.37
2017-11-15T17:04:13.491Z,47.13
2017-11-15T17:06:39.706Z,54.33
2017-11-15T17:09:06.621Z,42.27
2017-11-15T17:11:32.794Z,58.27
2017-11-15T17:13:58.969Z,48.40
2017-11-15T17:16:25.164Z,45.07
2017-11-15T17:18:51.363Z,60.50
2017-11-15T17:21:18.270Z,66.60
2017-11-15T17:23:44.476Z,64.30
2017-11-15T17:26:11.406Z,55.53
2017-11-15T17:28:38.332Z,53.67
2017-11-15T17:31:04.517Z,45.30
2017-11-15T17:33:30.697Z,58.90
2017-11-15T17:35:56.882Z,63.33
2017-11-15T17:38:23.061Z,63.83
2017-11-15T17:40:49.283Z,65.20
2017-11-15T17:43:15.477Z,63.80
2017-11-15T17:45:41.650Z,56.80
2017-11-15T17:48:07.829Z,67.00
2017-11-15T17:50:34.756Z,55.80
2017-11-15T17:53:01.691Z,51.50
2017-11-15T17:55:27.898Z,66.43
2017-11-15T17:57:54.231Z,62.40
2017-11-15T18:00:20.448Z,61.50
2017-11-15T18:02:47.391Z,60.30
2017-11-15T18:05:14.308Z,55.50
2017-11-15T18:07:40.462Z,64.60
2017-11-15T18:10:07.395Z,60.33
2017-11-15T18:12:33.565Z,65.20
2017-11-15T18:15:00.478Z,56.30
2017-11-15T18:17:26.658Z,61.70
2017-11-15T18:19:52.894Z,52.37
2017-11-15T18:22:19.809Z,78.77
2017-11-15T18:24:46.734Z,74.80
2017-11-15T18:27:12.958Z,75.10
2017-11-15T18:29:39.158Z,73.23
2017-11-15T18:32:05.331Z,70.30
2017-11-15T18:34:31.505Z,76.17
2017-11-15T18:36:58.447Z,74.10
2017-11-15T18:39:24.739Z,71.67
2017-11-15T18:41:50.918Z,59.30
2017-11-15T18:44:18.582Z,51.97
2017-11-15T18:46:44.792Z,71.93
2017-11-15T18:49:11.023Z,88.47
2017-11-15T18:51:37.267Z,71.97
2017-11-15T18:54:04.951Z,66.27
2017-11-15T18:56:31.878Z,62.40
2017-11-15T18:58:58.197Z,57.83
2017-11-15T19:01:24.542Z,57.87
2017-11-15T19:03:50.767Z,74.10
2017-11-15T19:06:16.930Z,64.27
2017-11-15T19:08:44.781Z,65.43
2017-11-15T19:11:10.954Z,65.67
2017-11-15T19:13:37.105Z,95.20
2017-11-15T19:16:03.306Z,67.87
2017-11-15T19:18:30.217Z,71.67
2017-11-15T19:20:56.379Z,85.70
2017-11-15T19:23:22.566Z,86.03
2017-11-15T19:25:48.741Z,91.63
2017-11-15T19:28:14.937Z,88.50
2017-11-15T19:30:41.141Z,88.93
2017-11-15T19:33:08.785Z,77.73
2017-11-15T19:35:34.962Z,85.77
2017-11-15T19:38:01.133Z,95.33
2017-11-15T19:40:27.345Z,108.90
2017-11-15T19:42:53.522Z,95.03
2017-11-15T19:45:19.690Z,77.60
2017-11-15T19:47:45.904Z,79.43
2017-11-15T19:50:12.129Z,94.63
2017-11-15T19:52:39.057Z,82.73
2017-11-15T19:55:05.237Z,77.53
2017-11-15T19:57:32.158Z,80.53
2017-11-15T19:59:58.594Z,94.43
2017-11-15T20:02:25.530Z,83.40
2017-11-15T20:04:51.747Z,84.53
2017-11-15T20:07:17.946Z,82.73
2017-11-15T20:09:44.840Z,99.57
2017-11-15T20:12:11.038Z,72.80
2017-11-15T20:14:37.953Z,86.23
2017-11-15T20:17:04.129Z,79.67
2017-11-15T20:19:30.294Z,82.93
2017-11-15T20:21:56.466Z,80.47
2017-11-15T20:24:24.113Z,81.07
2017-11-15T20:26:50.314Z,92.57
2017-11-15T20:29:16.514Z,66.60
2017-11-15T20:31:42.724Z,79.07
2017-11-15T20:34:08.889Z,79.83
2017-11-15T20:36:35.098Z,81.53
2017-11-15T20:39:02.017Z,79.80
2017-11-15T20:41:28.177Z,75.33
2017-11-15T20:43:55.114Z,83.03
2017-11-15T20:46:22.051Z,78.37
2017-11-15T20:48:48.260Z,77.27
2017-11-15T20:51:14.431Z,59.53
2017-11-15T20:53:40.605Z,72.03
2017-11-15T20:56:06.774Z,76.47
2017-11-15T20:58:32.946Z,75.33
2017-11-15T21:00:59.206Z,70.60
2017-11-15T21:03:26.099Z,75.90
2017-11-15T21:05:52.292Z,73.07
2017-11-15T21:08:18.472Z,79.30
2017-11-15T21:10:44.659Z,71.40
2017-11-15T21:13:10.871Z,68.30
2017-11-15T21:15:37.065Z,71.63
2017-11-15T21:18:03.244Z,73.50
2017-11-15T21:20:30.170Z,66.07
2017-11-15T21:22:56.350Z,79.17
2017-11-15T21:25:22.532Z,70.37
2017-11-15T21:27:48.742Z,63.67
2017-11-15T21:30:14.902Z,64.50
2017-11-15T21:32:41.111Z,69.97
2017-11-15T21:35:07.318Z,70.37
2017-11-15T21:37:33.514Z,64.87
2017-11-15T21:39:59.666Z,67.90
2017-11-15T21:42:27.434Z,75.70
2017-11-15T21:44:54.350Z,91.40
2017-11-15T21:47:20.542Z,72.10
2017-11-15T21:49:46.761Z,57.43
2017-11-15T21:52:12.949Z,63.60
2017-11-15T21:54:39.179Z,65.50
2017-11-15T21:57:06.146Z,77.10
2017-11-15T21:59:32.333Z,71.37
2017-11-15T22:01:58.645Z,85.10
2017-11-15T22:04:25.576Z,98.37
2017-11-15T22:06:51.722Z,91.70
2017-11-15T22:09:17.870Z,108.53
2017-11-15T22:11:44.061Z,110.90
2017-11-15T22:14:10.238Z,110.23
2017-11-15T22:16:37.166Z,99.20
2017-11-15T22:19:04.133Z,91.97
2017-11-15T22:21:30.318Z,102.90
2017-11-15T22:23:56.522Z,95.20
2017-11-15T22:26:22.713Z,79.87
2017-11-15T22:28:48.917Z,88.67
2017-11-15T22:31:15.108Z,87.50
2017-11-15T22:33:41.286Z,82.50
2017-11-15T22:36:07.455Z,73.57
2017-11-15T22:38:34.372Z,66.20
2017-11-15T22:41:00.564Z,72.33
2017-11-15T22:43:26.714Z,64.00
2017-11-15T22:45:52.878Z,66.33
2017-11-15T22:48:19.061Z,68.47
2017-11-15T22:50:45.230Z,69.27
2017-11-15T22:53:11.380Z,71.13
2017-11-15T22:55:37.587Z,73.07
2017-11-15T22:58:04.454Z,79.80
2017-11-15T23:00:30.622Z,80.50
2017-11-15T23:02:57.613Z,70.07
2017-11-15T23:05:23.781Z,72.23
2017-11-15T23:07:49.926Z,59.27
2017-11-15T23:10:16.087Z,67.97
2017-11-15T23:12:42.246Z,81.20
2017-11-15T23:15:08.410Z,65.30
2017-11-15T23:17:34.565Z,62.50
2017-11-15T23:20:01.470Z,61.80
2017-11-15T23:22:27.618Z,64.50
2017-11-15T23:24:53.822Z,71.97
2017-11-15T23:27:20.008Z,59.67
2017-11-15T23:29:46.914Z,53.87
2017-11-15T23:32:13.137Z,57.60
2017-11-15T23:34:39.305Z,59.07
2017-11-15T23:37:05.494Z,63.07
2017-11-15T23:39:31.694Z,60.43
2017-11-15T23:41:58.593Z,61.90
2017-11-15T23:44:24.758Z,64.47
2017-11-15T23:46:50.942Z,69.73
2017-11-15T23:49:17.105Z,65.73
2017-11-15T23:51:43.253Z,59.33
2017-11-15T23:54:09.477Z,81.70
2017-11-15T23:56:35.631Z,75.60
2017-11-15T23:59:01.838Z,65.20
